createdAt,value
2023-02-22T00:00:46.013Z,46.90
2023-02-22T00:01:46.810Z,46.50
2023-02-22T00:02:47.913Z,48.40
2023-02-22T00:03:48.076Z,47.70
2023-02-22T00:04:48.785Z,47.20
2023-02-22T00:05:49.490Z,47.10
2023-02-22T00:06:50.202Z,47.10
2023-02-22T00:07:50.916Z,47.40
2023-02-22T00:08:51.615Z,46.00
2023-02-22T00:09:52.335Z,47.10
2023-02-22T00:10:53.031Z,47.50
2023-02-22T00:11:53.752Z,48.60
2023-02-22T00:12:54.871Z,51.80
2023-02-22T00:13:55.075Z,50.00
2023-02-22T00:14:55.780Z,52.00
2023-02-22T00:15:56.504Z,50.60
2023-02-22T00:16:57.163Z,50.20
2023-02-22T00:17:58.381Z,48.80
2023-02-22T00:18:58.583Z,52.30
2023-02-22T00:19:59.290Z,49.60
2023-02-22T00:21:00.128Z,52.30
2023-02-22T00:22:00.795Z,50.20
2023-02-22T00:23:01.519Z,50.10
2023-02-22T00:24:02.223Z,51.50
2023-02-22T00:25:02.924Z,50.70
2023-02-22T00:26:03.629Z,51.10
2023-02-22T00:27:04.364Z,49.10
2023-02-22T00:28:05.372Z,49.70
2023-02-22T00:29:05.592Z,50.10
2023-02-22T00:30:06.345Z,52.20
2023-02-22T00:31:07.024Z,52.40
2023-02-22T00:32:07.764Z,50.90
2023-02-22T00:33:08.873Z,51.40
2023-02-22T00:34:09.085Z,51.60
2023-02-22T00:35:09.785Z,50.40
2023-02-22T00:36:10.501Z,51.20
2023-02-22T00:37:11.203Z,50.40
2023-02-22T00:38:12.373Z,51.00
2023-02-22T00:39:12.587Z,49.00
2023-02-22T00:40:13.294Z,50.80
2023-02-22T00:41:14.030Z,51.70
2023-02-22T00:42:14.766Z,49.50
2023-02-22T00:43:15.874Z,52.00
2023-02-22T00:44:16.082Z,50.30
2023-02-22T00:45:16.792Z,50.90
2023-02-22T00:46:17.547Z,49.40
2023-02-22T00:47:18.213Z,49.50
2023-02-22T00:48:19.386Z,48.90
2023-02-22T00:49:19.613Z,50.40
2023-02-22T00:50:20.359Z,48.90
2023-02-22T00:51:21.023Z,49.30
2023-02-22T00:52:21.726Z,47.20
2023-02-22T00:53:22.876Z,47.90
2023-02-22T00:54:23.084Z,49.50
2023-02-22T00:55:23.788Z,46.80
2023-02-22T00:56:24.501Z,47.60
2023-02-22T00:57:25.215Z,48.40
2023-02-22T00:58:25.919Z,45.40
2023-02-22T00:59:26.614Z,46.70
2023-02-22T01:00:27.323Z,48.90
2023-02-22T01:01:28.110Z,46.50
2023-02-22T01:02:28.782Z,47.50
2023-02-22T01:03:29.878Z,49.50
2023-02-22T01:04:30.094Z,49.90
2023-02-22T01:05:30.989Z,46.80
2023-02-22T01:06:31.793Z,45.30
2023-02-22T01:07:32.498Z,47.40
2023-02-22T01:08:33.211Z,48.60
2023-02-22T01:09:33.915Z,44.90
2023-02-22T01:10:34.623Z,46.00
2023-02-22T01:11:35.330Z,47.30
2023-02-22T01:12:36.096Z,47.70
2023-02-22T01:13:36.874Z,47.00
2023-02-22T01:14:37.576Z,49.50
2023-02-22T01:15:38.293Z,49.20
2023-02-22T01:16:39.016Z,51.10
2023-02-22T01:17:39.697Z,50.70
2023-02-22T01:18:40.883Z,49.50
2023-02-22T01:19:41.114Z,48.80
2023-02-22T01:20:41.818Z,45.20
2023-02-22T01:21:42.526Z,48.20
2023-02-22T01:22:43.232Z,48.10
2023-02-22T01:23:44.372Z,46.70
2023-02-22T01:24:44.580Z,48.80
2023-02-22T01:25:45.294Z,52.60
2023-02-22T01:26:46.002Z,48.00
2023-02-22T01:27:46.718Z,42.50
2023-02-22T01:28:47.421Z,46.40
2023-02-22T01:29:48.125Z,44.10
2023-02-22T01:30:48.943Z,48.40
2023-02-22T01:31:49.625Z,47.50
2023-02-22T01:32:50.266Z,49.10
2023-02-22T01:33:50.986Z,46.80
2023-02-22T01:34:51.685Z,46.10
2023-02-22T01:35:52.397Z,47.50
2023-02-22T01:36:53.104Z,49.00
2023-02-22T01:37:53.811Z,50.60
2023-02-22T01:38:54.875Z,49.30
2023-02-22T01:39:55.083Z,47.80
2023-02-22T01:40:55.791Z,50.00
2023-02-22T01:41:56.512Z,48.10
2023-02-22T01:42:57.232Z,48.00
2023-02-22T01:43:58.375Z,52.10
2023-02-22T01:44:58.588Z,52.10
2023-02-22T01:45:59.364Z,52.00
2023-02-22T01:47:00.038Z,52.90
2023-02-22T01:48:00.711Z,51.80
2023-02-22T01:49:01.884Z,52.80
2023-02-22T01:50:02.088Z,53.90
2023-02-22T01:51:02.817Z,53.70
2023-02-22T01:52:03.503Z,53.00
2023-02-22T01:53:04.209Z,54.70
2023-02-22T01:54:04.924Z,54.20
2023-02-22T01:55:05.627Z,54.80
2023-02-22T01:56:06.333Z,54.50
2023-02-22T01:57:07.056Z,55.90
2023-02-22T01:58:07.774Z,53.80
2023-02-22T01:59:08.877Z,56.20
2023-02-22T02:00:09.084Z,56.40
2023-02-22T02:01:09.796Z,56.60
2023-02-22T02:02:10.528Z,57.00
2023-02-22T02:03:11.204Z,54.00
2023-02-22T02:04:12.541Z,53.30
2023-02-22T02:05:12.770Z,53.80
2023-02-22T02:06:13.423Z,56.60
2023-02-22T02:07:14.130Z,55.00
2023-02-22T02:08:14.845Z,56.50
2023-02-22T02:09:15.872Z,55.60
2023-02-22T02:10:16.082Z,58.10
2023-02-22T02:11:17.121Z,58.00
2023-02-22T02:12:17.384Z,58.80
2023-02-22T02:13:18.111Z,59.70
2023-02-22T02:14:18.873Z,59.40
2023-02-22T02:15:19.577Z,56.60
2023-02-22T02:16:20.284Z,57.80
2023-02-22T02:17:21.008Z,59.30
2023-02-22T02:18:21.669Z,59.10
2023-02-22T02:19:22.877Z,58.30
2023-02-22T02:20:23.099Z,60.40
2023-02-22T02:21:23.809Z,59.70
2023-02-22T02:22:24.517Z,58.40
2023-02-22T02:23:25.233Z,58.50
2023-02-22T02:24:25.938Z,58.00
2023-02-22T02:25:26.671Z,56.60
2023-02-22T02:26:27.353Z,60.10
2023-02-22T02:27:28.068Z,59.30
2023-02-22T02:28:28.790Z,58.20
2023-02-22T02:29:29.482Z,62.20
2023-02-22T02:30:30.228Z,60.40
2023-02-22T02:31:30.921Z,59.80
2023-02-22T02:32:31.695Z,59.00
2023-02-22T02:33:32.350Z,61.00
2023-02-22T02:34:33.053Z,62.20
2023-02-22T02:35:33.754Z,61.70
2023-02-22T02:36:34.471Z,60.60
2023-02-22T02:37:35.175Z,59.90
2023-02-22T02:38:35.895Z,61.10
2023-02-22T02:39:36.884Z,59.90
2023-02-22T02:40:37.079Z,61.50
2023-02-22T02:41:37.792Z,61.20
2023-02-22T02:42:38.699Z,64.70
2023-02-22T02:43:39.428Z,61.00
2023-02-22T02:44:40.126Z,60.30
2023-02-22T02:45:40.820Z,61.70
2023-02-22T02:46:41.533Z,62.10
2023-02-22T02:47:42.251Z,63.40
2023-02-22T02:48:42.913Z,63.50
2023-02-22T02:49:43.892Z,61.40
2023-02-22T02:50:44.597Z,61.50
2023-02-22T02:51:45.306Z,58.00
2023-02-22T02:52:46.018Z,61.10
2023-02-22T02:53:46.716Z,63.80
2023-02-22T02:54:47.878Z,61.40
2023-02-22T02:55:48.083Z,63.10
2023-02-22T02:56:48.789Z,65.20
2023-02-22T02:57:49.490Z,63.70
2023-02-22T02:58:50.218Z,62.50
2023-02-22T02:59:51.384Z,61.00
2023-02-22T03:00:51.587Z,61.00
2023-02-22T03:01:52.382Z,60.90
2023-02-22T03:02:53.072Z,61.10
2023-02-22T03:03:53.706Z,62.60
2023-02-22T03:04:54.420Z,61.90
2023-02-22T03:05:55.173Z,59.80
2023-02-22T03:06:55.862Z,59.80
2023-02-22T03:07:56.574Z,61.20
2023-02-22T03:08:57.278Z,62.00
2023-02-22T03:09:58.397Z,60.70
2023-02-22T03:10:58.597Z,62.50
2023-02-22T03:11:59.302Z,61.20
2023-02-22T03:13:00.002Z,63.20
2023-02-22T03:14:00.730Z,61.00
2023-02-22T03:15:01.433Z,59.70
2023-02-22T03:16:02.157Z,61.60
2023-02-22T03:17:02.836Z,61.00
2023-02-22T03:18:03.556Z,61.00
2023-02-22T03:19:04.207Z,56.70
2023-02-22T03:20:05.386Z,59.40
2023-02-22T03:21:05.585Z,58.90
2023-02-22T03:22:06.294Z,60.50
2023-02-22T03:23:07.007Z,59.00
2023-02-22T03:24:07.701Z,57.50
2023-02-22T03:25:08.912Z,56.20
2023-02-22T03:26:09.093Z,55.80
2023-02-22T03:27:09.796Z,56.30
2023-02-22T03:28:10.504Z,57.00
2023-02-22T03:29:11.243Z,57.60
2023-02-22T03:30:11.938Z,56.80
2023-02-22T03:31:12.709Z,59.50
2023-02-22T03:32:13.380Z,58.20
2023-02-22T03:33:14.076Z,57.80
2023-02-22T03:34:14.754Z,59.70
2023-02-22T03:35:15.479Z,59.00
2023-02-22T03:36:16.190Z,57.80
2023-02-22T03:37:16.905Z,54.30
2023-02-22T03:38:17.601Z,53.80
2023-02-22T03:39:18.304Z,56.50
2023-02-22T03:40:19.016Z,58.30
2023-02-22T03:41:19.731Z,57.40
2023-02-22T03:42:20.429Z,56.80
2023-02-22T03:43:21.141Z,54.50
2023-02-22T03:44:21.867Z,53.90
2023-02-22T03:45:22.551Z,52.50
2023-02-22T03:46:23.348Z,52.40
2023-02-22T03:47:24.004Z,55.80
2023-02-22T03:48:24.730Z,55.90
2023-02-22T03:49:25.377Z,56.40
2023-02-22T03:50:26.414Z,55.30
2023-02-22T03:51:26.605Z,55.60
2023-02-22T03:52:27.316Z,55.50
2023-02-22T03:53:28.018Z,55.40
2023-02-22T03:54:28.728Z,56.20
2023-02-22T03:55:29.445Z,51.40
2023-02-22T03:56:30.149Z,52.20
2023-02-22T03:57:30.852Z,51.60
2023-02-22T03:58:31.558Z,52.00
2023-02-22T03:59:32.279Z,51.40
2023-02-22T04:00:33.401Z,48.00
2023-02-22T04:01:33.595Z,49.80
2023-02-22T04:02:34.300Z,47.50
2023-02-22T04:03:35.027Z,46.90
2023-02-22T04:04:35.713Z,49.10
2023-02-22T04:05:36.406Z,51.00
2023-02-22T04:06:37.105Z,49.70
2023-02-22T04:07:37.812Z,51.50
2023-02-22T04:08:38.520Z,51.20
2023-02-22T04:09:39.223Z,50.90
2023-02-22T04:10:40.389Z,51.70
2023-02-22T04:11:40.598Z,52.40
2023-02-22T04:12:41.302Z,53.60
2023-02-22T04:13:42.011Z,50.40
2023-02-22T04:14:42.737Z,55.50
2023-02-22T04:15:43.462Z,55.80
2023-02-22T04:16:44.135Z,58.60
2023-02-22T04:17:44.840Z,56.00
2023-02-22T04:18:45.566Z,55.40
2023-02-22T04:19:46.220Z,58.10
2023-02-22T04:20:47.394Z,56.90
2023-02-22T04:21:47.602Z,52.20
2023-02-22T04:22:48.311Z,54.90
2023-02-22T04:23:49.025Z,54.60
2023-02-22T04:24:49.726Z,54.50
2023-02-22T04:25:50.896Z,53.30
2023-02-22T04:26:51.111Z,51.60
2023-02-22T04:27:51.801Z,54.60
2023-02-22T04:28:52.524Z,55.90
2023-02-22T04:29:53.257Z,55.30
2023-02-22T04:30:54.452Z,54.00
2023-02-22T04:31:54.631Z,53.40
2023-02-22T04:32:55.313Z,57.20
2023-02-22T04:33:56.035Z,54.30
2023-02-22T04:34:56.749Z,54.70
2023-02-22T04:35:57.479Z,54.10
2023-02-22T04:36:58.180Z,54.20
2023-02-22T04:37:58.889Z,55.70
2023-02-22T04:38:59.601Z,55.30
2023-02-22T04:40:00.310Z,57.10
2023-02-22T04:41:01.393Z,52.70
2023-02-22T04:42:01.606Z,53.50
2023-02-22T04:43:02.321Z,53.20
2023-02-22T04:44:03.016Z,52.70
2023-02-22T04:45:03.756Z,51.80
2023-02-22T04:46:05.012Z,49.90
2023-02-22T04:47:05.161Z,50.40
2023-02-22T04:48:05.873Z,49.90
2023-02-22T04:49:06.590Z,50.10
2023-02-22T04:50:07.222Z,51.00
2023-02-22T04:51:08.408Z,49.20
2023-02-22T04:52:08.617Z,50.10
2023-02-22T04:53:09.338Z,48.40
2023-02-22T04:54:10.026Z,48.40
2023-02-22T04:55:10.732Z,48.60
2023-02-22T04:56:11.446Z,51.10
2023-02-22T04:57:12.167Z,49.50
2023-02-22T04:58:12.873Z,53.80
2023-02-22T04:59:13.604Z,50.40
2023-02-22T05:00:14.314Z,50.70
2023-02-22T05:01:15.793Z,50.70
2023-02-22T05:02:15.619Z,53.40
2023-02-22T05:03:16.301Z,54.60
2023-02-22T05:04:17.019Z,53.80
2023-02-22T05:05:17.713Z,51.50
2023-02-22T05:06:18.441Z,56.50
2023-02-22T05:07:19.126Z,55.60
2023-02-22T05:08:19.830Z,56.60
2023-02-22T05:09:20.544Z,57.00
2023-02-22T05:10:21.259Z,54.90
2023-02-22T05:11:22.405Z,52.90
2023-02-22T05:12:22.613Z,53.80
2023-02-22T05:13:23.320Z,51.70
2023-02-22T05:14:24.028Z,49.20
2023-02-22T05:15:24.752Z,46.80
2023-02-22T05:16:25.916Z,45.30
2023-02-22T05:17:26.127Z,44.90
2023-02-22T05:18:26.828Z,45.80
2023-02-22T05:19:27.552Z,42.90
2023-02-22T05:20:28.207Z,43.50
2023-02-22T05:21:29.399Z,44.10
2023-02-22T05:22:29.613Z,41.00
2023-02-22T05:23:30.318Z,42.70
2023-02-22T05:24:31.031Z,41.70
2023-02-22T05:25:31.731Z,42.00
2023-02-22T05:26:32.914Z,43.60
2023-02-22T05:27:33.104Z,41.00
2023-02-22T05:28:33.811Z,43.90
2023-02-22T05:29:34.518Z,40.90
2023-02-22T05:30:35.301Z,45.50
2023-02-22T05:31:36.068Z,42.20
2023-02-22T05:32:36.755Z,39.60
2023-02-22T05:33:37.471Z,39.10
2023-02-22T05:34:38.192Z,39.20
2023-02-22T05:35:38.848Z,37.70
2023-02-22T05:36:39.584Z,38.50
2023-02-22T05:37:40.285Z,38.30
2023-02-22T05:38:40.990Z,38.90
2023-02-22T05:39:41.701Z,40.60
2023-02-22T05:40:42.399Z,38.60
2023-02-22T05:41:43.406Z,40.60
2023-02-22T05:42:43.605Z,38.80
2023-02-22T05:43:44.314Z,38.40
2023-02-22T05:44:45.017Z,37.00
2023-02-22T05:45:45.738Z,37.70
2023-02-22T05:46:46.449Z,38.60
2023-02-22T05:47:47.141Z,37.60
2023-02-22T05:48:47.845Z,38.20
2023-02-22T05:49:48.571Z,39.00
2023-02-22T05:50:49.237Z,37.90
2023-02-22T05:51:50.419Z,36.90
2023-02-22T05:52:50.627Z,37.70
2023-02-22T05:53:51.337Z,37.10
2023-02-22T05:54:52.039Z,36.80
2023-02-22T05:55:52.744Z,36.00
2023-02-22T05:56:53.908Z,35.10
2023-02-22T05:57:54.110Z,38.20
2023-02-22T05:58:54.819Z,35.90
2023-02-22T05:59:55.527Z,37.80
2023-02-22T06:00:56.292Z,37.30
2023-02-22T06:01:57.401Z,37.80
2023-02-22T06:02:57.617Z,38.60
2023-02-22T06:03:58.310Z,38.40
2023-02-22T06:04:59.041Z,38.70
2023-02-22T06:05:59.724Z,39.30
2023-02-22T06:07:00.900Z,38.00
2023-02-22T06:08:01.117Z,39.20
2023-02-22T06:09:01.808Z,39.90
2023-02-22T06:10:02.514Z,40.20
2023-02-22T06:11:03.222Z,42.60
2023-02-22T06:12:03.952Z,43.60
2023-02-22T06:13:04.653Z,43.20
2023-02-22T06:14:05.366Z,40.90
2023-02-22T06:15:06.065Z,41.50
2023-02-22T06:16:06.857Z,40.80
2023-02-22T06:17:07.899Z,41.80
2023-02-22T06:18:08.103Z,44.20
2023-02-22T06:19:09.041Z,39.70
2023-02-22T06:20:09.774Z,40.50
2023-02-22T06:21:10.423Z,40.90
2023-02-22T06:22:11.137Z,42.20
2023-02-22T06:23:11.844Z,42.50
2023-02-22T06:24:12.547Z,42.00
2023-02-22T06:25:13.270Z,42.50
2023-02-22T06:26:13.980Z,43.30
2023-02-22T06:27:14.898Z,43.50
2023-02-22T06:28:15.634Z,42.80
2023-02-22T06:29:16.308Z,42.00
2023-02-22T06:30:17.056Z,41.20
2023-02-22T06:31:18.153Z,45.10
2023-02-22T06:32:18.583Z,46.10
2023-02-22T06:33:19.231Z,45.30
2023-02-22T06:34:19.946Z,44.40
2023-02-22T06:35:20.662Z,45.10
2023-02-22T06:36:21.342Z,44.60
2023-02-22T06:37:22.053Z,45.00
2023-02-22T06:38:22.759Z,45.40
2023-02-22T06:39:23.467Z,45.80
2023-02-22T06:40:24.179Z,45.30
2023-02-22T06:41:24.890Z,45.20
2023-02-22T06:42:25.643Z,45.50
2023-02-22T06:43:26.346Z,45.70
2023-02-22T06:44:27.057Z,46.40
2023-02-22T06:45:27.792Z,46.00
2023-02-22T06:46:28.528Z,45.40
2023-02-22T06:47:29.402Z,47.50
2023-02-22T06:48:30.111Z,46.40
2023-02-22T06:49:30.813Z,47.00
2023-02-22T06:50:31.632Z,45.40
2023-02-22T06:51:32.467Z,46.10
2023-02-22T06:52:33.417Z,47.10
2023-02-22T06:53:34.125Z,44.90
2023-02-22T06:54:34.831Z,44.00
2023-02-22T06:55:35.559Z,46.70
2023-02-22T06:56:36.259Z,43.60
2023-02-22T06:57:37.398Z,46.30
2023-02-22T06:58:37.612Z,45.20
2023-02-22T06:59:38.311Z,47.30
2023-02-22T07:00:39.183Z,47.00
2023-02-22T07:01:39.878Z,44.50
2023-02-22T07:02:40.897Z,46.50
2023-02-22T07:03:41.213Z,44.70
2023-02-22T07:04:43.575Z,43.00
2023-02-22T07:05:42.849Z,43.70
2023-02-22T07:06:43.544Z,44.30
2023-02-22T07:07:44.401Z,43.30
2023-02-22T07:08:45.107Z,40.20
2023-02-22T07:09:45.823Z,41.40
2023-02-22T07:10:46.528Z,41.70
2023-02-22T07:11:47.238Z,41.70
2023-02-22T07:12:48.402Z,43.10
2023-02-22T07:13:48.618Z,43.30
2023-02-22T07:14:49.318Z,40.90
2023-02-22T07:15:50.043Z,42.40
2023-02-22T07:16:50.764Z,42.60
2023-02-22T07:17:51.904Z,39.80
2023-02-22T07:18:52.123Z,42.50
2023-02-22T07:19:52.823Z,38.20
2023-02-22T07:20:53.545Z,38.70
2023-02-22T07:21:54.188Z,38.50
2023-02-22T07:22:54.911Z,39.70
2023-02-22T07:23:55.620Z,39.90
2023-02-22T07:24:56.407Z,38.80
2023-02-22T07:25:57.152Z,41.80
2023-02-22T07:26:57.865Z,40.90
2023-02-22T07:27:58.906Z,37.60
2023-02-22T07:28:59.116Z,37.90
2023-02-22T07:29:59.829Z,37.90
2023-02-22T07:31:00.588Z,37.50
2023-02-22T07:32:01.430Z,39.00
2023-02-22T07:33:02.496Z,39.10
2023-02-22T07:34:02.692Z,38.20
2023-02-22T07:35:03.405Z,38.60
2023-02-22T07:36:04.142Z,37.70
2023-02-22T07:37:04.775Z,38.20
2023-02-22T07:38:05.911Z,37.10
2023-02-22T07:39:06.121Z,38.80
2023-02-22T07:40:06.824Z,40.90
2023-02-22T07:41:07.544Z,39.30
2023-02-22T07:42:08.261Z,41.30
2023-02-22T07:43:08.967Z,43.80
2023-02-22T07:44:09.673Z,40.40
2023-02-22T07:45:10.383Z,44.30
2023-02-22T07:46:11.129Z,41.90
2023-02-22T07:47:11.857Z,46.20
2023-02-22T07:48:12.929Z,42.40
2023-02-22T07:49:13.127Z,42.60
2023-02-22T07:50:13.835Z,43.40
2023-02-22T07:51:14.992Z,43.70
2023-02-22T07:52:15.240Z,41.50
2023-02-22T07:53:16.447Z,42.50
2023-02-22T07:54:16.637Z,41.60
2023-02-22T07:55:17.363Z,43.20
2023-02-22T07:56:18.062Z,42.40
2023-02-22T07:57:18.773Z,40.70
2023-02-22T07:58:19.910Z,40.50
2023-02-22T07:59:20.120Z,39.10
2023-02-22T08:00:20.827Z,39.00
2023-02-22T08:01:21.540Z,39.10
2023-02-22T08:02:22.276Z,36.30
2023-02-22T08:03:23.592Z,35.60
2023-02-22T08:04:23.795Z,34.80
2023-02-22T08:05:24.526Z,32.70
2023-02-22T08:06:25.241Z,34.50
2023-02-22T08:07:25.923Z,34.90
2023-02-22T08:08:26.633Z,33.70
2023-02-22T08:09:27.340Z,33.00
2023-02-22T08:10:28.053Z,33.00
2023-02-22T08:11:28.770Z,32.80
2023-02-22T08:12:29.482Z,32.60
2023-02-22T08:13:30.410Z,32.60
2023-02-22T08:14:31.140Z,32.40
2023-02-22T08:15:31.843Z,32.30
2023-02-22T08:16:32.555Z,31.40
2023-02-22T08:17:33.285Z,30.00
2023-02-22T08:18:34.408Z,29.30
2023-02-22T08:19:34.617Z,30.40
2023-02-22T08:20:35.325Z,28.80
2023-02-22T08:21:36.072Z,28.80
2023-02-22T08:22:36.698Z,27.50
2023-02-22T08:23:37.412Z,25.90
2023-02-22T08:24:38.139Z,27.00
2023-02-22T08:25:38.837Z,27.50
2023-02-22T08:26:39.565Z,26.20
2023-02-22T08:27:40.251Z,26.50
2023-02-22T08:28:41.410Z,26.70
2023-02-22T08:29:41.649Z,26.40
2023-02-22T08:30:42.376Z,27.10
2023-02-22T08:31:43.129Z,26.70
2023-02-22T08:32:43.888Z,26.60
2023-02-22T08:33:44.913Z,27.00
2023-02-22T08:34:45.169Z,27.70
2023-02-22T08:35:45.873Z,25.40
2023-02-22T08:36:46.613Z,24.90
2023-02-22T08:37:47.246Z,25.20
2023-02-22T08:38:48.412Z,25.00
2023-02-22T08:39:48.622Z,25.80
2023-02-22T08:40:49.330Z,24.70
2023-02-22T08:41:50.036Z,25.40
2023-02-22T08:42:50.752Z,25.80
2023-02-22T08:43:51.458Z,26.10
2023-02-22T08:44:52.180Z,27.30
2023-02-22T08:45:54.432Z,25.80
2023-02-22T08:46:53.633Z,26.60
2023-02-22T08:47:54.371Z,25.80
2023-02-22T08:48:55.410Z,25.40
2023-02-22T08:49:55.619Z,26.50
2023-02-22T08:50:56.331Z,25.70
2023-02-22T08:51:57.067Z,25.30
2023-02-22T08:52:57.707Z,24.10
2023-02-22T08:53:58.929Z,24.60
2023-02-22T08:54:59.155Z,24.40
2023-02-22T08:55:59.865Z,24.70
2023-02-22T08:57:00.578Z,24.30
2023-02-22T08:58:01.307Z,23.80
2023-02-22T08:59:02.408Z,22.10
2023-02-22T09:00:02.646Z,20.80
2023-02-22T09:01:03.344Z,22.50
2023-02-22T09:02:04.125Z,21.80
2023-02-22T09:03:04.807Z,20.80
2023-02-22T09:04:05.503Z,20.80
2023-02-22T09:05:06.206Z,22.30
2023-02-22T09:06:06.984Z,21.20
2023-02-22T09:07:07.767Z,20.80
2023-02-22T09:08:08.418Z,20.80
2023-02-22T09:09:09.413Z,18.80
2023-02-22T09:10:09.612Z,17.90
2023-02-22T09:11:10.319Z,19.50
2023-02-22T09:12:11.024Z,18.50
2023-02-22T09:13:11.732Z,19.30
2023-02-22T09:14:12.910Z,17.80
2023-02-22T09:15:13.115Z,18.50
2023-02-22T09:16:13.845Z,18.50
2023-02-22T09:17:14.523Z,17.50
2023-02-22T09:18:15.272Z,17.70
2023-02-22T09:19:16.416Z,16.50
2023-02-22T09:20:16.614Z,17.40
2023-02-22T09:21:17.651Z,16.30
2023-02-22T09:22:17.945Z,16.20
2023-02-22T09:23:20.703Z,16.20
2023-02-22T09:24:19.411Z,15.90
2023-02-22T09:25:19.616Z,14.90
2023-02-22T09:26:20.325Z,15.90
2023-02-22T09:27:21.038Z,15.70
2023-02-22T09:28:21.768Z,14.50
2023-02-22T09:29:22.469Z,14.70
2023-02-22T09:30:23.363Z,14.80
2023-02-22T09:31:24.133Z,14.40
2023-02-22T09:32:25.052Z,14.80
2023-02-22T09:33:25.814Z,13.40
2023-02-22T09:34:26.916Z,14.10
2023-02-22T09:35:27.651Z,13.60
2023-02-22T09:36:27.886Z,13.50
2023-02-22T09:37:28.618Z,13.00
2023-02-22T09:38:29.257Z,13.00
2023-02-22T09:39:29.994Z,12.70
2023-02-22T09:40:30.689Z,12.60
2023-02-22T09:41:31.401Z,12.90
2023-02-22T09:42:32.110Z,12.50
2023-02-22T09:43:32.828Z,12.50
2023-02-22T09:44:33.913Z,12.10
2023-02-22T09:45:34.182Z,12.90
2023-02-22T09:46:34.836Z,12.10
2023-02-22T09:47:35.606Z,12.40
2023-02-22T09:48:36.323Z,13.00
2023-02-22T09:49:36.982Z,12.80
2023-02-22T09:50:37.687Z,12.30
2023-02-22T09:51:38.395Z,12.00
2023-02-22T09:52:39.242Z,11.80
2023-02-22T09:53:39.867Z,12.50
2023-02-22T09:54:40.929Z,12.10
2023-02-22T09:55:41.146Z,12.20
2023-02-22T09:56:41.843Z,11.40
2023-02-22T09:57:42.551Z,11.90
2023-02-22T09:58:43.248Z,11.90
2023-02-22T09:59:44.420Z,11.20
2023-02-22T10:00:44.627Z,11.80
2023-02-22T10:01:45.339Z,11.20
2023-02-22T10:02:46.087Z,10.50
2023-02-22T10:03:46.857Z,11.30
2023-02-22T10:04:47.924Z,10.90
2023-02-22T10:05:48.128Z,11.40
2023-02-22T10:06:48.837Z,11.10
2023-02-22T10:07:49.561Z,11.20
2023-02-22T10:08:50.211Z,10.30
2023-02-22T10:09:50.912Z,10.50
2023-02-22T10:10:51.612Z,11.30
2023-02-22T10:11:52.322Z,10.70
2023-02-22T10:12:53.025Z,11.00
2023-02-22T10:13:53.735Z,11.70
2023-02-22T10:14:54.922Z,10.30
2023-02-22T10:15:55.125Z,11.00
2023-02-22T10:16:55.894Z,10.90
2023-02-22T10:17:56.539Z,10.70
2023-02-22T10:18:57.283Z,10.50
2023-02-22T10:19:58.420Z,11.00
2023-02-22T10:20:58.630Z,11.00
2023-02-22T10:21:59.355Z,10.60
2023-02-22T10:23:00.111Z,10.00
2023-02-22T10:24:00.741Z,10.50
2023-02-22T10:25:01.925Z,9.50
2023-02-22T10:26:02.134Z,9.80
2023-02-22T10:27:02.874Z,9.70
2023-02-22T10:28:03.612Z,10.20
2023-02-22T10:29:04.294Z,9.10
2023-02-22T10:30:15.558Z,9.30
2023-02-22T10:31:06.803Z,9.40
2023-02-22T10:32:06.616Z,9.40
2023-02-22T10:33:07.286Z,9.00
2023-02-22T10:34:08.023Z,9.30
2023-02-22T10:35:08.925Z,9.10
2023-02-22T10:36:09.633Z,9.40
2023-02-22T10:37:10.449Z,9.20
2023-02-22T10:38:11.161Z,9.30
2023-02-22T10:39:11.825Z,8.80
2023-02-22T10:40:12.930Z,9.50
2023-02-22T10:41:13.164Z,9.10
2023-02-22T10:42:13.867Z,8.40
2023-02-22T10:43:14.578Z,8.70
2023-02-22T10:44:15.287Z,9.10
2023-02-22T10:45:16.433Z,8.90
2023-02-22T10:46:17.267Z,9.60
2023-02-22T10:47:18.297Z,8.90
2023-02-22T10:48:18.447Z,9.00
2023-02-22T10:49:19.168Z,9.00
2023-02-22T10:50:19.933Z,9.40
2023-02-22T10:51:20.642Z,9.00
2023-02-22T10:52:21.349Z,8.70
2023-02-22T10:53:22.133Z,9.30
2023-02-22T10:54:22.756Z,8.90
2023-02-22T10:55:23.480Z,8.50
2023-02-22T10:56:24.184Z,8.80
2023-02-22T10:57:24.888Z,8.90
2023-02-22T10:58:25.594Z,8.80
2023-02-22T10:59:26.300Z,8.80
2023-02-22T11:00:27.435Z,9.30
2023-02-22T11:01:27.772Z,9.00
2023-02-22T11:02:28.470Z,9.00
2023-02-22T11:03:29.167Z,8.70
2023-02-22T11:04:29.983Z,8.60
2023-02-22T11:05:30.947Z,8.40
2023-02-22T11:06:31.167Z,8.80
2023-02-22T11:07:31.847Z,8.40
2023-02-22T11:08:32.587Z,8.70
2023-02-22T11:09:33.222Z,9.10
2023-02-22T11:10:34.435Z,9.00
2023-02-22T11:11:34.637Z,8.40
2023-02-22T11:12:35.344Z,8.80
2023-02-22T11:13:36.050Z,8.50
2023-02-22T11:14:36.754Z,8.60
2023-02-22T11:15:37.470Z,8.70
2023-02-22T11:16:38.330Z,8.30
2023-02-22T11:17:39.106Z,8.50
2023-02-22T11:18:39.808Z,8.40
2023-02-22T11:19:40.536Z,7.90
2023-02-22T11:20:41.439Z,8.40
2023-02-22T11:21:42.149Z,8.40
2023-02-22T11:22:42.855Z,8.00
2023-02-22T11:23:44.952Z,8.00
2023-02-22T11:24:49.339Z,8.20
2023-02-22T11:25:45.940Z,8.10
2023-02-22T11:26:45.649Z,7.80
2023-02-22T11:27:46.347Z,8.20
2023-02-22T11:28:47.052Z,7.70
2023-02-22T11:29:47.760Z,7.80
2023-02-22T11:30:49.041Z,7.30
2023-02-22T11:31:49.495Z,7.40
2023-02-22T11:32:49.745Z,7.70
2023-02-22T11:33:50.449Z,7.70
2023-02-22T11:35:00.162Z,7.30
2023-02-22T11:35:52.978Z,7.50
2023-02-22T11:36:52.649Z,7.10
2023-02-22T11:37:53.347Z,7.50
2023-02-22T11:38:54.087Z,7.10
2023-02-22T11:39:54.721Z,6.80
2023-02-22T11:40:55.442Z,6.90
2023-02-22T11:41:56.144Z,7.00
2023-02-22T11:42:56.850Z,6.60
2023-02-22T11:43:57.677Z,6.80
2023-02-22T11:44:58.293Z,6.10
2023-02-22T11:46:01.665Z,5.80
2023-02-22T11:46:59.574Z,6.10
2023-02-22T11:48:00.275Z,5.60
2023-02-22T11:49:00.987Z,5.60
2023-02-22T11:50:01.720Z,5.20
2023-02-22T11:51:02.449Z,5.30
2023-02-22T11:52:03.202Z,4.80
2023-02-22T11:53:03.909Z,4.90
2023-02-22T11:54:04.705Z,5.00
2023-02-22T11:55:05.387Z,4.90
2023-02-22T11:56:06.061Z,5.40
2023-02-22T11:57:06.799Z,4.70
2023-02-22T11:58:07.505Z,4.90
2023-02-22T11:59:08.213Z,4.80
2023-02-22T12:00:08.918Z,4.40
2023-02-22T12:01:09.946Z,4.50
2023-02-22T12:02:10.198Z,4.70
2023-02-22T12:03:10.909Z,4.40
2023-02-22T12:04:11.753Z,4.50
2023-02-22T12:05:12.592Z,4.60
2023-02-22T12:06:13.447Z,4.60
2023-02-22T12:07:14.162Z,4.40
2023-02-22T12:08:20.210Z,4.10
2023-02-22T12:09:16.507Z,4.30
2023-02-22T12:10:16.139Z,4.60
2023-02-22T12:11:16.952Z,4.70
2023-02-22T12:12:17.653Z,4.90
2023-02-22T12:13:18.380Z,4.50
2023-02-22T12:14:19.087Z,4.30
2023-02-22T12:15:19.784Z,4.20
2023-02-22T12:16:20.759Z,4.80
2023-02-22T12:17:21.006Z,4.50
2023-02-22T12:18:21.716Z,4.20
2023-02-22T12:19:22.421Z,4.30
2023-02-22T12:20:23.151Z,4.50
2023-02-22T12:21:23.946Z,4.50
2023-02-22T12:22:24.652Z,4.80
2023-02-22T12:23:25.363Z,4.70
2023-02-22T12:24:26.078Z,4.30
2023-02-22T12:25:26.751Z,4.70
2023-02-22T12:26:27.450Z,4.60
2023-02-22T12:27:28.282Z,4.70
2023-02-22T12:28:29.048Z,4.50
2023-02-22T12:29:29.864Z,4.60
2023-02-22T12:30:30.613Z,4.40
2023-02-22T12:31:31.495Z,4.50
2023-02-22T12:32:32.246Z,4.40
2023-02-22T12:33:33.039Z,4.30
2023-02-22T12:34:33.699Z,4.60
2023-02-22T12:35:34.413Z,4.20
2023-02-22T12:36:35.473Z,4.40
2023-02-22T12:37:35.687Z,4.20
2023-02-22T12:38:36.425Z,4.50
2023-02-22T12:39:51.846Z,4.50
2023-02-22T12:40:38.739Z,4.30
2023-02-22T12:41:38.954Z,4.00
2023-02-22T12:42:39.167Z,4.30
2023-02-22T12:43:39.867Z,4.10
2023-02-22T12:44:40.576Z,3.90
2023-02-22T12:45:41.285Z,3.70
2023-02-22T12:46:42.238Z,4.20
2023-02-22T12:47:42.915Z,4.10
2023-02-22T12:48:43.659Z,4.20
2023-02-22T12:49:44.334Z,3.80
2023-02-22T12:50:45.062Z,4.20
2023-02-22T12:51:45.754Z,4.00
2023-02-22T12:52:46.459Z,4.10
2023-02-22T12:53:47.169Z,3.90
2023-02-22T12:54:47.924Z,3.90
2023-02-22T12:55:48.587Z,4.10
2023-02-22T12:56:49.313Z,4.10
2023-02-22T12:57:50.023Z,3.60
2023-02-22T12:58:50.734Z,3.60
2023-02-22T12:59:51.440Z,3.80
2023-02-22T13:00:52.200Z,4.00
2023-02-22T13:01:53.031Z,4.10
2023-02-22T13:02:53.709Z,3.70
2023-02-22T13:03:54.424Z,3.90
2023-02-22T13:04:55.180Z,3.80
2023-02-22T13:05:55.849Z,4.00
2023-02-22T13:06:56.964Z,3.70